createdAt,value
2023-04-18T00:01:44.363Z,77.53
2023-04-18T00:04:14.157Z,77.26
2023-04-18T00:06:40.909Z,76.93
2023-04-18T00:09:08.367Z,75.47
2023-04-18T00:11:35.132Z,75.28
2023-04-18T00:14:03.279Z,74.27
2023-04-18T00:16:33.095Z,73.65
2023-04-18T00:19:03.490Z,73.64
2023-04-18T00:21:30.068Z,73.89
2023-04-18T00:23:56.597Z,74.13
2023-04-18T00:26:23.170Z,71.85
2023-04-18T00:28:51.067Z,70.90
2023-04-18T00:31:17.654Z,69.50
2023-04-18T00:33:45.423Z,69.08
2023-04-18T00:36:15.044Z,68.38
2023-04-18T00:38:42.733Z,68.71
2023-04-18T00:41:10.822Z,67.77
2023-04-18T00:43:37.585Z,66.13
2023-04-18T00:46:05.447Z,66.80
2023-04-18T00:48:32.020Z,66.48
2023-04-18T00:51:00.248Z,65.31
2023-04-18T00:53:27.887Z,66.25
2023-04-18T00:55:54.929Z,65.19
2023-04-18T00:58:21.594Z,65.08
2023-04-18T01:00:50.789Z,65.34
2023-04-18T01:03:19.295Z,65.86
2023-04-18T01:05:46.486Z,65.95
2023-04-18T01:08:13.298Z,67.16
2023-04-18T01:10:42.040Z,67.10
2023-04-18T01:13:16.509Z,66.83
2023-04-18T01:15:44.542Z,67.30
2023-04-18T01:18:12.327Z,66.75
2023-04-18T01:20:41.639Z,67.99
2023-04-18T01:23:10.325Z,66.97
2023-04-18T01:25:37.326Z,67.40
2023-04-18T01:28:04.728Z,67.54
2023-04-18T01:30:32.362Z,67.75
2023-04-18T01:33:01.485Z,67.05
2023-04-18T01:35:28.493Z,66.53
2023-04-18T01:37:57.336Z,67.80
2023-04-18T01:40:24.703Z,67.03
2023-04-18T01:42:51.296Z,67.23
2023-04-18T01:45:20.163Z,67.21
2023-04-18T01:47:47.203Z,67.11
2023-04-18T01:50:13.970Z,66.77
2023-04-18T01:52:42.574Z,67.72
2023-04-18T01:55:09.617Z,66.39
2023-04-18T01:57:36.829Z,67.21
2023-04-18T02:00:08.045Z,66.53
2023-04-18T02:02:43.503Z,67.58
2023-04-18T02:05:12.889Z,67.83
2023-04-18T02:07:40.824Z,66.91
2023-04-18T02:10:07.876Z,67.40
2023-04-18T02:12:35.891Z,67.55
2023-04-18T02:15:02.700Z,67.01
2023-04-18T02:17:32.629Z,67.97
2023-04-18T02:19:59.103Z,68.09
2023-04-18T02:22:25.641Z,68.52
2023-04-18T02:24:52.805Z,67.62
2023-04-18T02:27:20.304Z,67.98
2023-04-18T02:29:46.855Z,67.91
2023-04-18T02:32:13.593Z,67.91
2023-04-18T02:34:43.500Z,68.53
2023-04-18T02:37:10.029Z,67.78
2023-04-18T02:39:37.885Z,68.11
2023-04-18T02:42:05.636Z,67.90
2023-04-18T02:44:32.106Z,68.59
2023-04-18T02:46:59.209Z,68.12
2023-04-18T02:49:25.892Z,68.23
2023-04-18T02:51:55.702Z,68.49
2023-04-18T02:54:22.282Z,68.76
2023-04-18T02:57:04.073Z,68.48
2023-04-18T02:59:52.787Z,68.31
2023-04-18T03:02:39.404Z,68.72
2023-04-18T03:05:21.416Z,68.80
2023-04-18T03:07:48.460Z,68.82
2023-04-18T03:10:16.333Z,69.32
2023-04-18T03:12:43.021Z,68.56
2023-04-18T03:15:11.621Z,67.95
2023-04-18T03:17:39.162Z,68.07
2023-04-18T03:20:06.394Z,68.86
2023-04-18T03:22:32.910Z,69.13
2023-04-18T03:25:01.070Z,69.23
2023-04-18T03:27:40.435Z,69.59
2023-04-18T03:30:07.875Z,69.41
2023-04-18T03:32:36.425Z,69.38
2023-04-18T03:35:03.326Z,69.36
2023-04-18T03:37:30.213Z,69.71
2023-04-18T03:39:57.241Z,69.58
2023-04-18T03:42:26.602Z,69.58
2023-04-18T03:44:55.203Z,69.58
2023-04-18T03:47:21.946Z,69.83
2023-04-18T03:49:54.456Z,69.72
2023-04-18T03:52:22.578Z,70.00
2023-04-18T03:54:49.092Z,69.60
2023-04-18T03:57:17.689Z,70.03
2023-04-18T03:59:46.053Z,69.89
2023-04-18T04:02:13.927Z,70.49
2023-04-18T04:04:43.099Z,70.06
2023-04-18T04:07:10.758Z,70.49
2023-04-18T04:09:37.266Z,70.55
2023-04-18T04:12:03.972Z,70.33
2023-04-18T04:14:30.585Z,70.59
2023-04-18T04:16:57.196Z,70.02
2023-04-18T04:19:23.778Z,69.74
2023-04-18T04:22:12.032Z,70.16
2023-04-18T04:24:46.681Z,69.81
2023-04-18T04:27:15.659Z,70.24
2023-04-18T04:29:43.710Z,70.53
2023-04-18T04:32:17.795Z,70.20
2023-04-18T04:34:46.281Z,70.47
2023-04-18T04:37:14.197Z,70.94
2023-04-18T04:39:53.270Z,70.83
2023-04-18T04:42:32.993Z,70.51
2023-04-18T04:45:08.222Z,70.67
2023-04-18T04:47:36.306Z,70.80
2023-04-18T04:50:05.243Z,70.96
2023-04-18T04:52:32.640Z,71.16
2023-04-18T04:54:59.584Z,71.05
2023-04-18T04:57:26.466Z,71.09
2023-04-18T04:59:53.310Z,71.65
2023-04-18T05:02:23.163Z,71.89
2023-04-18T05:04:50.070Z,72.05
2023-04-18T05:07:16.609Z,71.99
2023-04-18T05:09:43.397Z,72.23
2023-04-18T05:12:09.884Z,72.29
2023-04-18T05:14:36.386Z,72.63
2023-04-18T05:17:04.046Z,72.29
2023-04-18T05:19:31.989Z,72.54
2023-04-18T05:21:58.503Z,72.51
2023-04-18T05:24:27.601Z,72.33
2023-04-18T05:26:54.340Z,72.77
2023-04-18T05:29:21.044Z,72.86
2023-04-18T05:31:47.841Z,72.69
2023-04-18T05:34:17.235Z,73.05
2023-04-18T05:36:45.851Z,72.71
2023-04-18T05:39:12.649Z,73.04
2023-04-18T05:41:39.171Z,73.41
2023-04-18T05:44:07.155Z,73.50
2023-04-18T05:46:33.835Z,73.35
2023-04-18T05:49:00.649Z,73.09
2023-04-18T05:51:28.411Z,73.65
2023-04-18T05:53:55.043Z,73.77
2023-04-18T05:56:21.535Z,73.55
2023-04-18T05:58:51.203Z,74.26
2023-04-18T06:01:21.355Z,74.10
2023-04-18T06:03:48.159Z,74.38
2023-04-18T06:06:14.996Z,74.49
2023-04-18T06:08:41.722Z,74.40
2023-04-18T06:11:09.105Z,74.41
2023-04-18T06:13:38.853Z,74.29
2023-04-18T06:16:07.966Z,74.50
2023-04-18T06:18:36.617Z,74.82
2023-04-18T06:21:03.122Z,74.37
2023-04-18T06:23:29.656Z,73.87
2023-04-18T06:25:56.921Z,74.19
2023-04-18T06:28:23.756Z,74.21
2023-04-18T06:30:50.916Z,73.87
2023-04-18T06:33:17.450Z,74.67
2023-04-18T06:35:44.206Z,74.02
2023-04-18T06:38:14.676Z,73.40
2023-04-18T06:40:41.227Z,73.29
2023-04-18T06:43:07.682Z,73.85
2023-04-18T06:45:34.936Z,73.58
2023-04-18T06:48:03.773Z,73.45
2023-04-18T06:50:30.638Z,72.99
2023-04-18T06:52:57.629Z,73.24
2023-04-18T06:55:24.136Z,72.98
2023-04-18T06:57:52.071Z,73.27
2023-04-18T07:03:39.654Z,73.19
2023-04-18T07:06:10.468Z,73.27
2023-04-18T07:08:38.021Z,72.37
2023-04-18T07:11:06.214Z,73.04
2023-04-18T07:13:35.889Z,73.49
2023-04-18T07:16:03.549Z,72.84
2023-04-18T07:18:37.353Z,72.99
2023-04-18T07:21:07.482Z,73.00
2023-04-18T07:23:34.489Z,72.17
2023-04-18T07:26:03.633Z,72.84
2023-04-18T07:28:32.085Z,72.58
2023-04-18T07:31:00.193Z,72.92
2023-04-18T07:33:26.943Z,73.39
2023-04-18T07:35:53.497Z,72.61
2023-04-18T07:38:20.725Z,72.97
2023-04-18T07:41:09.214Z,72.36
2023-04-18T07:43:43.855Z,71.38
2023-04-18T07:46:13.036Z,70.95
2023-04-18T07:48:42.325Z,71.47
2023-04-18T07:51:08.913Z,70.13
2023-04-18T07:53:35.766Z,69.26
2023-04-18T07:56:02.273Z,68.24
2023-04-18T07:58:29.182Z,69.41
2023-04-18T08:00:56.060Z,68.35
2023-04-18T08:03:22.813Z,68.61
2023-04-18T08:05:50.093Z,68.65
2023-04-18T08:08:16.733Z,66.29
2023-04-18T08:10:43.284Z,64.39
2023-04-18T08:13:09.818Z,64.88
2023-04-18T08:15:36.407Z,64.75
2023-04-18T08:18:03.028Z,64.24
2023-04-18T08:20:31.753Z,64.15
2023-04-18T08:23:07.612Z,63.33
2023-04-18T08:25:36.393Z,62.43
2023-04-18T08:28:04.096Z,61.58
2023-04-18T08:30:31.662Z,61.95
2023-04-18T08:33:01.063Z,62.28
2023-04-18T08:35:30.114Z,61.04
2023-04-18T08:38:01.611Z,61.37
2023-04-18T08:40:30.229Z,62.28
2023-04-18T08:42:58.550Z,63.28
2023-04-18T08:45:26.138Z,62.47
2023-04-18T08:47:54.016Z,63.86
2023-04-18T08:50:21.397Z,63.59
2023-04-18T08:52:50.639Z,63.71
2023-04-18T08:55:18.987Z,62.84
2023-04-18T08:57:45.802Z,61.22
2023-04-18T09:00:14.319Z,61.53
2023-04-18T09:02:42.410Z,60.77
2023-04-18T09:05:15.037Z,61.42
2023-04-18T09:07:42.500Z,61.16
2023-04-18T09:10:10.121Z,61.95
2023-04-18T09:12:50.736Z,61.19
2023-04-18T09:15:20.405Z,60.49
2023-04-18T09:17:50.945Z,59.58
2023-04-18T09:20:35.165Z,60.41
2023-04-18T09:23:10.339Z,58.94
2023-04-18T09:25:47.891Z,56.20
2023-04-18T09:28:33.105Z,57.76
2023-04-18T09:31:10.176Z,56.18
2023-04-18T09:33:38.220Z,55.88
2023-04-18T09:36:19.971Z,57.92
2023-04-18T09:38:47.555Z,58.60
2023-04-18T09:41:21.261Z,57.54
2023-04-18T09:43:48.609Z,56.72
2023-04-18T09:46:17.514Z,56.74
2023-04-18T09:48:44.233Z,55.90
2023-04-18T09:51:14.803Z,55.82
2023-04-18T09:53:44.545Z,56.10
2023-04-18T09:56:28.216Z,56.91
2023-04-18T09:59:07.312Z,57.19
2023-04-18T10:01:34.579Z,59.03
2023-04-18T10:04:03.345Z,57.60
2023-04-18T10:06:33.446Z,56.70
2023-04-18T10:09:04.211Z,57.37
2023-04-18T10:11:32.371Z,56.82
2023-04-18T10:14:06.875Z,57.72
2023-04-18T10:16:34.923Z,58.36
2023-04-18T10:19:29.374Z,58.42
2023-04-18T10:22:01.470Z,59.01
2023-04-18T10:24:48.338Z,58.51
2023-04-18T10:27:17.019Z,57.54
2023-04-18T10:29:49.382Z,58.28
2023-04-18T10:32:18.129Z,56.47
2023-04-18T10:34:47.194Z,56.61
2023-04-18T10:37:13.747Z,58.23
2023-04-18T10:40:07.137Z,58.29
2023-04-18T10:42:51.811Z,56.19
2023-04-18T10:45:22.092Z,55.80
2023-04-18T10:47:48.965Z,55.06
2023-04-18T10:50:19.456Z,54.06
2023-04-18T10:52:46.154Z,54.92
2023-04-18T10:55:19.163Z,54.73
2023-04-18T10:57:50.675Z,53.40
2023-04-18T11:00:22.793Z,53.47
2023-04-18T11:02:52.167Z,52.10
2023-04-18T11:05:21.186Z,52.08
2023-04-18T11:07:50.675Z,53.07
2023-04-18T11:10:26.233Z,53.58
2023-04-18T11:12:54.176Z,54.87
2023-04-18T11:15:22.942Z,55.08
2023-04-18T11:18:03.846Z,55.04
2023-04-18T11:20:38.553Z,55.87
2023-04-18T11:23:16.182Z,55.64
2023-04-18T11:25:44.847Z,55.90
2023-04-18T11:28:14.001Z,55.68
2023-04-18T11:30:41.328Z,55.19
2023-04-18T11:33:13.375Z,55.58
2023-04-18T11:35:44.582Z,56.19
2023-04-18T11:38:15.939Z,56.43
2023-04-18T11:40:50.846Z,56.08
2023-04-18T11:43:22.513Z,57.01
2023-04-18T11:45:57.025Z,56.80
2023-04-18T11:48:24.202Z,56.21
2023-04-18T11:50:50.763Z,56.31
2023-04-18T11:53:35.457Z,56.06
2023-04-18T11:56:03.526Z,55.90
2023-04-18T11:58:34.377Z,55.69
2023-04-18T12:01:22.348Z,55.81
2023-04-18T12:04:05.975Z,56.91
2023-04-18T12:06:49.222Z,56.86
2023-04-18T12:09:17.465Z,56.49
2023-04-18T12:11:44.368Z,56.36
2023-04-18T12:14:21.610Z,56.12
2023-04-18T12:16:51.838Z,56.73
2023-04-18T12:19:20.598Z,56.31
2023-04-18T12:22:05.057Z,57.04
2023-04-18T12:24:32.316Z,56.46
2023-04-18T12:27:00.671Z,56.89
2023-04-18T12:29:28.733Z,56.53
2023-04-18T12:31:55.555Z,55.77
2023-04-18T12:34:22.102Z,56.10
2023-04-18T12:36:48.686Z,56.54
2023-04-18T12:39:15.623Z,57.36
2023-04-18T12:41:43.238Z,57.05
2023-04-18T12:44:09.679Z,56.85
2023-04-18T12:46:36.415Z,56.80
2023-04-18T12:49:02.966Z,56.60
2023-04-18T12:51:29.496Z,57.17
2023-04-18T12:53:56.312Z,57.37
2023-04-18T12:56:22.859Z,57.57
2023-04-18T12:58:49.411Z,58.67
2023-04-18T13:01:16.511Z,58.43
2023-04-18T13:03:45.554Z,58.26
2023-04-18T13:06:15.551Z,58.24
2023-04-18T13:08:42.562Z,59.13
2023-04-18T13:11:09.266Z,58.45
2023-04-18T13:13:37.147Z,59.04
2023-04-18T13:16:04.342Z,58.75
2023-04-18T13:18:30.854Z,59.58
2023-04-18T13:20:58.428Z,59.09
2023-04-18T13:23:24.999Z,59.78
2023-04-18T13:25:51.639Z,59.90
2023-04-18T13:28:18.158Z,59.05
2023-04-18T13:30:45.210Z,58.97
2023-04-18T13:33:11.785Z,58.59
2023-04-18T13:35:38.370Z,59.08
2023-04-18T13:38:04.785Z,58.54
2023-04-18T13:40:33.400Z,57.88
2023-04-18T13:42:59.905Z,58.08
2023-04-18T13:45:26.416Z,58.72
2023-04-18T13:47:52.845Z,58.67
2023-04-18T13:50:20.278Z,57.93
2023-04-18T13:52:48.628Z,57.16
2023-04-18T13:55:16.116Z,57.74
2023-04-18T13:57:42.602Z,58.10
2023-04-18T14:00:09.841Z,57.46
2023-04-18T14:02:40.270Z,57.50
2023-04-18T14:05:07.384Z,56.96
2023-04-18T14:07:34.018Z,55.83
2023-04-18T14:10:00.645Z,55.17
2023-04-18T14:12:27.123Z,55.49
2023-04-18T14:14:53.735Z,54.61
2023-04-18T14:17:20.217Z,54.78
2023-04-18T14:19:46.704Z,55.31
2023-04-18T14:22:13.494Z,55.26
2023-04-18T14:24:39.996Z,54.97
2023-04-18T14:27:06.511Z,55.06
2023-04-18T14:29:33.018Z,55.97
2023-04-18T14:32:01.952Z,55.83
2023-04-18T14:34:31.229Z,55.56
2023-04-18T14:36:59.813Z,55.66
2023-04-18T14:39:26.243Z,56.46
2023-04-18T14:41:54.669Z,56.10
2023-04-18T14:44:21.109Z,56.01
2023-04-18T14:46:48.813Z,54.58
2023-04-18T14:49:15.526Z,55.51
2023-04-18T14:51:43.390Z,55.64
2023-04-18T14:54:10.162Z,55.44
2023-04-18T14:56:36.664Z,55.09
2023-04-18T14:59:03.769Z,54.99
2023-04-18T15:01:31.657Z,55.43
2023-04-18T15:04:00.623Z,54.41
2023-04-18T15:06:27.297Z,54.56
2023-04-18T15:08:56.666Z,55.11
2023-04-18T15:11:23.687Z,54.46
2023-04-18T15:13:51.700Z,54.10
2023-04-18T15:16:18.348Z,53.72
2023-04-18T15:18:45.118Z,55.25
2023-04-18T15:21:11.560Z,55.13
2023-04-18T15:23:38.289Z,54.00
2023-04-18T15:26:04.884Z,54.73
2023-04-18T15:28:31.364Z,54.96
2023-04-18T15:30:57.866Z,54.38
2023-04-18T15:33:25.933Z,54.33
2023-04-18T15:35:52.477Z,54.25
2023-04-18T15:38:19.093Z,54.19
2023-04-18T15:40:45.724Z,55.15
2023-04-18T15:43:13.725Z,55.04
2023-04-18T15:45:40.697Z,54.87
2023-04-18T15:48:07.178Z,54.24
2023-04-18T15:50:33.876Z,54.60
2023-04-18T15:53:00.600Z,54.48
2023-04-18T15:55:29.839Z,54.41
2023-04-18T15:57:56.399Z,55.17
2023-04-18T16:00:26.533Z,54.89
2023-04-18T16:02:53.637Z,54.93
2023-04-18T16:05:20.149Z,54.62
2023-04-18T16:07:46.573Z,55.04
2023-04-18T16:10:15.017Z,54.68
2023-04-18T16:12:41.559Z,54.98
2023-04-18T16:15:09.653Z,55.87
2023-04-18T16:17:37.357Z,54.65
2023-04-18T16:20:06.087Z,54.65
2023-04-18T16:22:32.801Z,54.73
2023-04-18T16:24:59.733Z,55.17
2023-04-18T16:27:26.303Z,55.12
2023-04-18T16:29:53.732Z,54.53
2023-04-18T16:32:20.399Z,54.30
2023-04-18T16:34:47.357Z,55.04
2023-04-18T16:37:13.771Z,54.97
2023-04-18T16:39:42.499Z,54.95
2023-04-18T16:42:09.072Z,55.30
2023-04-18T16:44:35.653Z,55.66
2023-04-18T16:47:02.353Z,55.90
2023-04-18T16:49:28.996Z,55.73
2023-04-18T16:51:55.460Z,55.60
2023-04-18T16:54:21.909Z,55.76
2023-04-18T16:56:48.618Z,56.54
2023-04-18T16:59:16.223Z,56.17
2023-04-18T17:01:42.758Z,55.76
2023-04-18T17:04:09.358Z,56.45
2023-04-18T17:06:35.898Z,56.24
2023-04-18T17:09:03.558Z,56.02
2023-04-18T17:11:32.050Z,55.25
2023-04-18T17:13:58.444Z,55.52
2023-04-18T17:16:25.048Z,55.37
2023-04-18T17:18:51.531Z,55.90
2023-04-18T17:21:18.051Z,56.15
2023-04-18T17:23:44.579Z,56.62
2023-04-18T17:26:11.219Z,56.85
2023-04-18T17:28:37.762Z,57.25
2023-04-18T17:31:05.994Z,57.55
2023-04-18T17:33:32.502Z,57.53
2023-04-18T17:35:58.980Z,57.82
2023-04-18T17:38:25.587Z,57.57
2023-04-18T17:41:00.404Z,57.72
2023-04-18T17:43:27.271Z,58.18
2023-04-18T17:45:54.042Z,58.33
2023-04-18T17:48:22.784Z,58.45
2023-04-18T17:50:49.195Z,58.60
2023-04-18T17:53:18.490Z,58.34
2023-04-18T17:55:46.815Z,58.49
2023-04-18T17:58:16.579Z,57.94
2023-04-18T18:00:44.335Z,58.26
2023-04-18T18:03:16.344Z,58.16
2023-04-18T18:05:49.613Z,58.17
2023-04-18T18:08:16.396Z,58.20
2023-04-18T18:10:46.535Z,58.37
2023-04-18T18:13:13.684Z,58.35
2023-04-18T18:15:40.210Z,59.45
2023-04-18T18:18:06.788Z,58.74
2023-04-18T18:20:33.282Z,59.01
2023-04-18T18:22:59.817Z,58.96
2023-04-18T18:25:26.971Z,59.33
2023-04-18T18:27:54.445Z,59.41
2023-04-18T18:30:21.687Z,59.76
2023-04-18T18:32:48.393Z,60.23
2023-04-18T18:35:16.077Z,60.11
2023-04-18T18:37:43.626Z,60.97
2023-04-18T18:40:11.720Z,60.70
2023-04-18T18:42:38.221Z,61.02
2023-04-18T18:45:05.841Z,61.46
2023-04-18T18:47:32.349Z,61.08
2023-04-18T18:49:58.976Z,62.03
2023-04-18T18:52:28.038Z,61.50
2023-04-18T18:54:55.040Z,61.32
2023-04-18T18:57:21.595Z,61.86
2023-04-18T18:59:50.982Z,61.42
2023-04-18T19:02:17.710Z,61.85
2023-04-18T19:04:44.708Z,61.73
2023-04-18T19:07:11.591Z,62.20
2023-04-18T19:09:38.114Z,62.17
2023-04-18T19:12:05.234Z,62.91
2023-04-18T19:14:33.862Z,62.68
2023-04-18T19:17:00.748Z,63.11
2023-04-18T19:19:27.263Z,62.81
2023-04-18T19:21:53.776Z,62.97
2023-04-18T19:24:20.629Z,62.96
2023-04-18T19:26:47.117Z,62.37
2023-04-18T19:29:16.408Z,62.88
2023-04-18T19:31:43.981Z,62.61
2023-04-18T19:34:10.904Z,62.78
2023-04-18T19:36:37.391Z,62.63
2023-04-18T19:39:04.142Z,62.67
2023-04-18T19:41:30.653Z,63.01
2023-04-18T19:43:59.395Z,63.13
2023-04-18T19:46:27.093Z,63.25
2023-04-18T19:48:54.720Z,62.76
2023-04-18T19:51:21.607Z,63.27
2023-04-18T19:53:48.148Z,63.72
2023-04-18T19:56:15.724Z,63.56
2023-04-18T19:58:46.444Z,63.92
2023-04-18T20:01:16.715Z,63.89
2023-04-18T20:03:43.589Z,63.90
2023-04-18T20:06:11.492Z,64.14
2023-04-18T20:08:41.510Z,64.13
2023-04-18T20:11:10.412Z,64.26
2023-04-18T20:13:38.703Z,64.42
2023-04-18T20:16:07.447Z,64.30
2023-04-18T20:18:35.847Z,64.54
2023-04-18T20:21:03.461Z,64.10
2023-04-18T20:23:30.911Z,64.59
2023-04-18T20:25:57.703Z,64.63
2023-04-18T20:28:24.451Z,64.89
2023-04-18T20:30:51.050Z,64.97
2023-04-18T20:33:17.537Z,65.01
2023-04-18T20:35:48.202Z,65.24
2023-04-18T20:38:15.160Z,65.21
2023-04-18T20:40:47.229Z,65.14
2023-04-18T20:43:17.397Z,65.37
2023-04-18T20:45:45.986Z,65.47
2023-04-18T20:48:14.006Z,65.35
2023-04-18T20:50:41.043Z,65.21
2023-04-18T20:53:07.476Z,65.12
2023-04-18T20:55:33.939Z,65.60
2023-04-18T20:58:00.573Z,65.50
2023-04-18T21:00:28.160Z,65.17
2023-04-18T21:02:56.217Z,65.61
2023-04-18T21:05:23.562Z,65.60
2023-04-18T21:07:50.366Z,65.75
2023-04-18T21:10:21.208Z,65.55
2023-04-18T21:12:47.889Z,65.86
2023-04-18T21:15:17.695Z,65.97
2023-04-18T21:17:45.837Z,66.38
2023-04-18T21:20:13.719Z,66.05
2023-04-18T21:22:40.476Z,66.19
2023-04-18T21:25:07.558Z,66.24
2023-04-18T21:27:34.022Z,66.25
2023-04-18T21:30:02.249Z,66.18
2023-04-18T21:32:30.465Z,66.48
2023-04-18T21:34:57.802Z,66.16
2023-04-18T21:37:25.189Z,66.77
2023-04-18T21:39:52.133Z,66.66
2023-04-18T21:42:18.689Z,66.46
2023-04-18T21:44:45.247Z,66.95
2023-04-18T21:47:11.702Z,67.02
2023-04-18T21:49:38.247Z,67.19
2023-04-18T21:52:04.922Z,67.31
2023-04-18T21:54:31.367Z,67.22
2023-04-18T21:56:58.453Z,67.29
2023-04-18T21:59:24.918Z,67.60
2023-04-18T22:01:51.363Z,67.29
2023-04-18T22:04:21.007Z,67.80
2023-04-18T22:06:47.842Z,68.08
2023-04-18T22:09:14.462Z,67.64
2023-04-18T22:11:41.246Z,67.79
2023-04-18T22:14:09.842Z,68.32
2023-04-18T22:16:38.054Z,68.47
2023-04-18T22:19:05.658Z,68.14
2023-04-18T22:21:32.204Z,68.55
2023-04-18T22:23:58.634Z,68.76
2023-04-18T22:26:25.293Z,68.78
2023-04-18T22:28:51.761Z,69.01
2023-04-18T22:31:18.298Z,69.27
2023-04-18T22:33:47.409Z,69.22
2023-04-18T22:36:13.945Z,69.08
2023-04-18T22:38:40.345Z,69.66
2023-04-18T22:41:07.828Z,69.67
2023-04-18T22:43:34.395Z,69.91
2023-04-18T22:46:00.973Z,69.56
2023-04-18T22:48:27.488Z,70.26
2023-04-18T22:50:54.281Z,70.17
2023-04-18T22:53:21.992Z,70.34
2023-04-18T22:55:48.427Z,70.69
2023-04-18T22:58:14.919Z,69.90
2023-04-18T23:00:41.526Z,70.80
2023-04-18T23:03:08.191Z,70.54
2023-04-18T23:05:35.328Z,71.68
2023-04-18T23:08:01.954Z,70.83
2023-04-18T23:10:29.950Z,70.87
2023-04-18T23:12:56.557Z,71.75
2023-04-18T23:15:23.170Z,71.71
2023-04-18T23:17:52.891Z,71.55
2023-04-18T23:20:20.746Z,71.44
2023-04-18T23:22:51.477Z,72.00
2023-04-18T23:25:19.304Z,71.75
2023-04-18T23:27:45.791Z,71.54
2023-04-18T23:30:14.108Z,71.64
2023-04-18T23:32:40.645Z,72.37
2023-04-18T23:35:07.569Z,71.80
2023-04-18T23:37:35.488Z,71.74
2023-04-18T23:40:05.328Z,72.31
2023-04-18T23:42:36.156Z,72.32
2023-04-18T23:45:04.044Z,72.94
2023-04-18T23:47:30.634Z,72.63
2023-04-18T23:49:57.494Z,72.52
2023-04-18T23:52:24.191Z,72.91
2023-04-18T23:54:50.717Z,72.91
2023-04-18T23:57:23.954Z,72.88
2023-04-18T23:59:50.488Z,73.52
